createdAt,value
2022-10-05T05:57:17.306Z,3.93
2022-10-05T06:00:07.287Z,4.07
2022-10-05T06:02:58.743Z,3.97
2022-10-05T06:05:44.049Z,4.80
2022-10-05T06:08:33.225Z,4.13
2022-10-05T06:11:24.268Z,3.93
2022-10-05T06:14:10.334Z,3.90
2022-10-05T06:16:54.093Z,4.50
2022-10-05T06:19:32.812Z,4.47
2022-10-05T06:22:19.511Z,4.10
2022-10-05T06:25:10.327Z,3.73
2022-10-05T06:28:06.672Z,3.93
2022-10-05T06:31:07.405Z,4.50
2022-10-05T06:33:53.497Z,3.90
2022-10-05T06:36:51.566Z,4.25
2022-10-05T06:39:55.460Z,5.00
2022-10-05T06:42:50.225Z,4.57
2022-10-05T06:46:07.596Z,3.97
2022-10-05T06:49:23.055Z,3.90
2022-10-05T06:52:28.636Z,4.03
2022-10-05T06:55:19.615Z,3.73
2022-10-05T06:58:26.787Z,5.30
2022-10-05T07:01:16.867Z,4.97
2022-10-05T07:04:18.518Z,4.17
2022-10-05T07:07:01.156Z,3.90
2022-10-05T07:09:51.679Z,4.07
2022-10-05T07:12:47.346Z,3.93
2022-10-05T07:15:43.839Z,4.17
2022-10-05T07:19:03.348Z,4.67
2022-10-05T07:21:49.276Z,5.03
2022-10-05T07:24:36.700Z,4.70
2022-10-05T07:27:21.089Z,4.23
2022-10-05T07:30:05.250Z,4.45
2022-10-05T07:33:03.259Z,4.73
2022-10-05T07:36:05.468Z,4.43
2022-10-05T07:38:49.367Z,4.50
2022-10-05T07:41:35.359Z,4.43
2022-10-05T07:44:22.950Z,4.27
2022-10-05T07:47:08.142Z,5.20
2022-10-05T07:49:57.105Z,4.03
2022-10-05T07:52:42.480Z,3.70
2022-10-05T07:55:25.863Z,4.47
2022-10-05T07:58:17.349Z,4.20
2022-10-05T08:01:11.521Z,4.50
2022-10-05T08:04:00.125Z,4.60
2022-10-05T08:06:51.191Z,3.90
2022-10-05T08:09:46.096Z,4.20
2022-10-05T08:12:38.323Z,4.50
2022-10-05T08:15:20.899Z,4.30
2022-10-05T08:18:03.290Z,3.73
2022-10-05T08:20:48.792Z,4.57
2022-10-05T08:23:31.535Z,4.50
2022-10-05T08:26:25.595Z,4.40
2022-10-05T08:29:16.954Z,4.45
2022-10-05T08:31:59.287Z,4.47
2022-10-05T08:34:49.133Z,4.57
2022-10-05T08:37:31.004Z,3.60
2022-10-05T08:40:42.440Z,5.00
2022-10-05T08:43:47.950Z,4.90
2022-10-05T08:47:07.430Z,3.92
2022-10-05T08:50:22.201Z,5.60
2022-10-05T08:53:41.309Z,4.25
2022-10-05T08:56:36.112Z,4.47
2022-10-05T09:00:10.732Z,4.30
2022-10-05T09:03:36.460Z,4.03
2022-10-05T09:06:36.629Z,4.00
2022-10-05T09:10:01.502Z,5.30
2022-10-05T09:13:35.216Z,4.60
2022-10-05T09:16:53.429Z,4.07
2022-10-05T09:20:27.540Z,4.22
2022-10-05T09:23:24.677Z,4.25
2022-10-05T09:26:10.071Z,4.60
2022-10-05T09:29:08.819Z,4.28
2022-10-05T09:32:16.246Z,4.05
2022-10-05T09:35:28.700Z,4.00
2022-10-05T09:38:25.158Z,3.80
2022-10-05T09:41:45.936Z,3.78
2022-10-05T09:45:07.999Z,4.20
2022-10-05T09:48:20.550Z,4.60
2022-10-05T09:52:06.799Z,3.90
2022-10-05T09:55:25.917Z,3.60
2022-10-05T09:58:38.502Z,3.78
2022-10-05T10:01:38.555Z,3.95
2022-10-05T10:04:51.172Z,3.88
2022-10-05T10:08:10.418Z,3.97
2022-10-05T10:11:04.890Z,3.85
2022-10-05T10:14:30.180Z,3.85
2022-10-05T10:17:37.731Z,4.13
2022-10-05T10:20:41.168Z,4.00
2022-10-05T10:23:39.147Z,3.85
2022-10-05T10:27:01.630Z,4.20
2022-10-05T10:30:33.174Z,4.30
2022-10-05T10:33:51.400Z,4.22
2022-10-05T10:36:56.152Z,3.63
2022-10-05T10:39:53.757Z,4.05
2022-10-05T10:42:45.200Z,4.43
2022-10-05T10:45:37.120Z,3.60
2022-10-05T10:48:52.428Z,4.20
2022-10-05T10:52:05.192Z,4.22
2022-10-05T10:55:22.137Z,3.65
2022-10-05T10:58:48.424Z,3.95
2022-10-05T11:01:38.890Z,3.90
2022-10-05T11:04:54.685Z,3.70
2022-10-05T11:08:30.874Z,3.65
2022-10-05T11:11:44.475Z,4.00
2022-10-05T11:14:57.553Z,3.55
2022-10-05T11:18:08.563Z,3.72
2022-10-05T11:21:34.592Z,4.03
2022-10-05T11:24:52.724Z,4.30
2022-10-05T11:28:03.327Z,3.50
2022-10-05T11:31:30.250Z,4.00
2022-10-05T11:35:02.044Z,3.50
2022-10-05T11:38:07.073Z,3.35
2022-10-05T11:41:19.394Z,3.53
2022-10-05T11:44:48.185Z,3.25
2022-10-05T11:47:31.265Z,3.90
2022-10-05T11:50:17.304Z,3.40
2022-10-05T11:53:02.158Z,3.60
2022-10-05T11:55:45.904Z,3.40
2022-10-05T11:58:32.587Z,3.47
2022-10-05T12:01:20.475Z,3.15
2022-10-05T12:04:12.474Z,3.33
2022-10-05T12:07:09.044Z,3.67
2022-10-05T12:10:22.050Z,3.97
2022-10-05T12:13:22.297Z,3.60
2022-10-05T12:16:09.201Z,3.45
2022-10-05T12:19:00.345Z,3.70
2022-10-05T12:21:44.897Z,3.35
2022-10-05T12:24:30.894Z,3.30
2022-10-05T12:27:18.246Z,3.47
2022-10-05T12:30:03.562Z,3.92
2022-10-05T12:32:56.950Z,3.60
2022-10-05T12:35:49.300Z,3.50
2022-10-05T12:38:32.031Z,3.67
2022-10-05T12:41:21.704Z,3.60
2022-10-05T12:44:17.128Z,3.20
2022-10-05T12:47:07.534Z,3.63
2022-10-05T12:50:06.153Z,3.67
2022-10-05T12:53:05.761Z,3.33
2022-10-05T12:55:52.387Z,3.33
2022-10-05T12:58:41.409Z,3.70
2022-10-05T13:01:34.581Z,3.47
2022-10-05T13:04:27.155Z,2.90
2022-10-05T13:07:48.644Z,3.90
2022-10-05T13:10:36.744Z,3.42
2022-10-05T13:13:34.016Z,3.25
2022-10-05T13:16:31.213Z,3.25
2022-10-05T13:19:26.037Z,3.63
2022-10-05T13:22:30.804Z,3.60
2022-10-05T13:25:23.842Z,3.50
2022-10-05T13:28:20.526Z,3.28
2022-10-05T13:31:06.439Z,3.42
2022-10-05T13:34:01.320Z,3.80
2022-10-05T13:36:56.295Z,3.40
2022-10-05T13:39:59.933Z,3.47
2022-10-05T13:42:45.051Z,3.47
2022-10-05T13:45:26.344Z,3.90
2022-10-05T13:48:24.612Z,3.50
2022-10-05T13:51:10.819Z,3.28
2022-10-05T13:53:53.221Z,3.00
2022-10-05T13:56:37.126Z,3.65
2022-10-05T13:59:28.231Z,3.70
2022-10-05T14:02:11.904Z,3.67
2022-10-05T14:04:52.102Z,3.53
2022-10-05T14:07:35.408Z,3.50
2022-10-05T14:10:18.761Z,3.85
2022-10-05T14:12:59.247Z,3.50
2022-10-05T14:15:42.133Z,3.67
2022-10-05T14:18:28.879Z,3.72
2022-10-05T14:21:19.130Z,3.42
2022-10-05T14:23:56.793Z,3.30
2022-10-05T14:26:39.136Z,3.22
2022-10-05T14:29:29.669Z,3.60
2022-10-05T14:32:18.977Z,3.80
2022-10-05T14:35:16.967Z,3.80
2022-10-05T14:38:01.044Z,3.15
2022-10-05T14:40:40.625Z,3.47
2022-10-05T14:43:23.603Z,3.65
2022-10-05T14:46:05.678Z,3.47
2022-10-05T14:48:47.994Z,3.83
2022-10-05T14:51:32.203Z,3.33
2022-10-05T14:54:32.711Z,3.67
2022-10-05T14:57:20.303Z,3.40
2022-10-05T15:00:13.532Z,4.00
2022-10-05T15:03:11.102Z,3.53
2022-10-05T15:05:55.071Z,4.05
2022-10-05T15:08:56.134Z,3.70
2022-10-05T15:11:44.504Z,4.10
2022-10-05T15:14:27.373Z,3.55
2022-10-05T15:17:07.906Z,4.03
2022-10-05T15:19:59.724Z,4.15
2022-10-05T15:22:49.986Z,3.72
2022-10-05T15:25:33.154Z,3.72
2022-10-05T15:28:24.720Z,3.55
2022-10-05T15:31:07.121Z,3.78
2022-10-05T15:33:54.228Z,3.80
2022-10-05T15:36:43.370Z,3.88
2022-10-05T15:39:33.074Z,4.70
2022-10-05T15:42:15.787Z,4.00
2022-10-05T15:45:06.625Z,4.03
2022-10-05T15:47:56.516Z,3.90
2022-10-05T15:50:39.405Z,3.95
2022-10-05T15:53:26.356Z,4.00
2022-10-05T15:56:09.944Z,5.22
2022-10-05T15:59:00.478Z,4.35
2022-10-05T16:01:50.333Z,4.68
2022-10-05T16:04:43.256Z,4.65
2022-10-05T16:07:43.755Z,4.47
2022-10-05T16:10:26.422Z,4.72
2022-10-05T16:13:22.423Z,5.30
2022-10-05T16:16:24.236Z,5.65
2022-10-05T16:19:10.306Z,4.68
2022-10-05T16:21:58.350Z,8.98
2022-10-05T16:25:02.114Z,6.28
2022-10-05T16:27:56.105Z,5.45
2022-10-05T16:30:42.091Z,5.35
2022-10-05T16:33:29.590Z,5.80
2022-10-05T16:36:16.983Z,5.93
2022-10-05T16:39:02.922Z,5.70
2022-10-05T16:41:51.774Z,6.47
2022-10-05T16:44:42.985Z,6.68
2022-10-05T16:47:45.873Z,8.07
2022-10-05T16:50:30.900Z,6.20
2022-10-05T16:53:23.350Z,8.27
2022-10-05T16:56:05.454Z,7.63
2022-10-05T16:59:01.275Z,8.00
2022-10-05T17:01:56.583Z,8.43
2022-10-05T17:04:49.845Z,8.25
2022-10-05T17:07:51.265Z,8.63
2022-10-05T17:10:56.599Z,9.73
2022-10-05T17:14:06.653Z,10.35
2022-10-05T17:17:04.227Z,9.95
2022-10-05T17:19:59.061Z,8.90
2022-10-05T17:22:40.863Z,8.63
2022-10-05T17:25:24.629Z,9.35
2022-10-05T17:28:25.187Z,9.73
2022-10-05T17:31:19.895Z,9.32
2022-10-05T17:34:29.829Z,9.10
2022-10-05T17:37:35.873Z,8.98
2022-10-05T17:40:38.355Z,8.63
2022-10-05T17:43:31.056Z,8.73
2022-10-05T17:46:09.377Z,10.05
